Time;durP1;ratioP1;P1;durP2;ratioP2;P2;SDS_P1;SDS_P2;PMS_P1;PMS_P2;Temp;Humidity;BMP_temperature;BMP_pressure;BME280_temperature;BME280_humidity;BME280_pressure;Samples;Min_cycle;Max_cycle;Signal;HPM_P1;HPM_P2
2021/05/06 00:34:57;;;;;;;3.42;1.73;;;;;;;6.08;43.53;100459.56;7975663;28;20037;-66
2021/05/06 00:38:52;;;;;;;6.60;1.80;;;;;;;6.07;43.34;100457.88;7978445;28;20041;-66
2021/05/06 01:07:57;;;;;;;2.45;2.05;;;;;;;6.02;44.00;100436.44;7978518;28;20302;-67
2021/05/06 01:11:59;;;;;;;3.03;2.05;;;;;;;6.03;44.21;100427.69;7974065;28;20049;-66
2021/05/06 02:01:50;;;;;;;1.52;1.40;;;;;;;5.78;44.89;100384.75;7979807;28;21789;-66
2021/05/06 02:05:45;;;;;;;7.13;1.70;;;;;;;5.80;44.93;100390.75;7971666;28;20037;-66
2021/05/06 02:09:37;;;;;;;5.45;1.95;;;;;;;5.81;45.00;100390.66;7977251;28;20039;-67
2021/05/06 02:13:30;;;;;;;4.57;1.63;;;;;;;5.79;45.11;100395.13;7975922;28;20406;-66
2021/05/06 02:17:28;;;;;;;4.10;1.55;;;;;;;5.79;44.91;100394.28;7973673;28;20498;-66
2021/05/06 02:21:23;;;;;;;3.87;1.60;;;;;;;5.76;45.04;100395.28;7976410;28;20139;-66
2021/05/06 02:25:22;;;;;;;2.60;1.40;;;;;;;5.77;45.29;100388.28;7979570;28;20991;-67
2021/05/06 02:29:17;;;;;;;2.47;1.30;;;;;;;5.78;45.35;100389.97;7969866;28;20033;-66
2021/05/06 02:33:10;;;;;;;2.30;1.35;;;;;;;5.81;45.33;100384.63;7974518;28;20037;-67
2021/05/06 02:37:02;;;;;;;4.65;1.30;;;;;;;5.84;45.61;100380.09;7978976;28;20529;-67
2021/05/06 02:40:54;;;;;;;2.42;1.30;;;;;;;5.87;45.45;100379.06;7977136;28;20035;-67
2021/05/06 02:44:46;;;;;;;1.95;1.38;;;;;;;5.89;45.49;100366.81;7975331;28;20034;-66
2021/05/06 02:48:38;;;;;;;8.68;2.17;;;;;;;5.90;45.83;100368.47;7972657;28;20053;-67
2021/05/06 02:52:34;;;;;;;3.45;1.20;;;;;;;5.92;45.78;100364.88;7977251;28;20565;-66
2021/05/06 02:56:41;;;;;;;3.13;1.13;;;;;;;5.93;45.89;100360.50;7977967;28;20041;-67
2021/05/06 03:04:46;;;;;;;1.58;1.00;;;;;;;5.92;45.74;100359.66;7978795;28;20033;-67
2021/05/06 03:08:44;;;;;;;1.20;0.98;;;;;;;5.91;45.93;100354.50;7978142;28;20045;-66
2021/05/06 03:25:14;;;;;;;1.90;0.93;;;;;;;5.87;46.19;100345.16;7978248;28;20056;-67
2021/05/06 03:29:10;;;;;;;2.30;0.90;;;;;;;5.88;45.93;100349.47;7972261;28;21036;-66
2021/05/06 03:41:44;;;;;;;1.60;0.98;;;;;;;5.89;46.15;100353.75;7974194;28;20116;-66
2021/05/06 03:46:09;;;;;;;2.75;1.02;;;;;;;5.90;46.44;100332.81;7975401;28;20401;-66
2021/05/06 04:27:23;;;;;;;2.00;1.33;;;;;;;5.78;46.58;100358.69;7978325;28;20037;-66
2021/05/06 04:35:38;;;;;;;4.13;1.45;;;;;;;5.83;46.46;100357.53;7978955;28;20132;-66
2021/05/06 04:39:50;;;;;;;4.80;1.27;;;;;;;5.87;46.47;100363.41;7962186;28;20044;-66
2021/05/06 04:56:39;;;;;;;1.50;1.23;;;;;;;5.90;46.73;100365.84;7979147;28;20036;-67
2021/05/06 05:04:45;;;;;;;3.83;1.67;;;;;;;5.96;46.56;100366.38;7974792;28;20041;-66
2021/05/06 05:08:42;;;;;;;4.60;1.48;;;;;;;6.01;46.72;100369.56;7981845;28;20102;-66
2021/05/06 05:23:23;;;;;;;4.03;1.50;;;;;;;6.14;46.95;100350.66;7984066;28;20068;-66
2021/05/06 05:25:20;;;;;;;2.88;1.30;;;;;;;6.25;46.93;100353.47;7975312;28;20049;-66
2021/05/06 05:29:12;;;;;;;;;;;;;;;6.27;46.49;100351.59;7979432;28;20148;-66
2021/05/06 05:33:13;;;;;;;2.53;1.35;;;;;;;6.41;46.59;100360.34;7975046;28;19928;-66
2021/05/06 05:37:06;;;;;;;4.65;1.60;;;;;;;6.59;46.76;100353.25;7980206;28;20044;-66
2021/05/06 05:45:25;;;;;;;3.53;2.13;;;;;;;6.99;47.14;100364.84;7977904;28;20033;-67
2021/05/06 05:57:13;;;;;;;2.97;1.50;;;;;;;6.95;46.80;100368.56;7951256;28;20037;-66
2021/05/06 06:01:07;;;;;;;2.50;1.35;;;;;;;7.00;47.08;100376.97;7957987;28;20555;-66
2021/05/06 06:04:59;;;;;;;1.17;1.05;;;;;;;7.02;46.82;100367.28;7978823;28;20056;-66
2021/05/06 06:08:53;;;;;;;4.50;1.83;;;;;;;7.05;46.86;100381.94;7976794;28;20626;-66
2021/05/06 06:12:46;;;;;;;2.30;1.60;;;;;;;7.02;46.74;100367.28;7978108;28;20132;-66
2021/05/06 06:16:40;;;;;;;2.08;1.33;;;;;;;7.05;46.79;100371.50;7973786;28;20572;-66
2021/05/06 06:20:34;;;;;;;2.75;1.48;;;;;;;7.05;46.63;100367.06;7976047;28;20112;-67
2021/05/06 06:24:26;;;;;;;3.13;1.45;;;;;;;7.06;47.14;100371.38;7975397;28;20029;-65
2021/05/06 06:28:18;;;;;;;3.80;1.75;;;;;;;7.05;47.06;100369.69;7978351;28;20116;-67
2021/05/06 06:32:14;;;;;;;3.42;2.42;;;;;;;7.06;47.10;100367.91;7979172;28;20044;-66
2021/05/06 06:36:10;;;;;;;5.53;1.65;;;;;;;7.08;47.02;100364.31;7975089;28;20409;-66
2021/05/06 06:40:03;;;;;;;4.32;1.90;;;;;;;7.14;47.13;100369.16;7975654;28;20098;-67
2021/05/06 06:43:58;;;;;;;4.60;1.55;;;;;;;7.23;47.09;100372.97;7977734;28;20037;-66
2021/05/06 06:47:54;;;;;;;3.97;1.80;;;;;;;7.24;46.89;100372.06;7975263;28;20041;-67
2021/05/06 06:51:45;;;;;;;3.42;1.40;;;;;;;7.29;47.07;100370.03;7974936;28;20094;-67
2021/05/06 06:55:36;;;;;;;2.58;1.73;;;;;;;7.38;46.93;100375.50;7976676;28;20055;-67
2021/05/06 06:59:30;;;;;;;3.90;2.22;;;;;;;7.53;47.00;100363.31;7978993;28;20037;-67
2021/05/06 07:03:23;;;;;;;3.13;1.75;;;;;;;7.78;47.00;100366.09;7977366;28;20041;-66
2021/05/06 07:07:16;;;;;;;4.15;2.50;;;;;;;8.79;47.39;100366.50;7978226;28;20029;-67
2021/05/06 07:11:08;;;;;;;3.13;1.90;;;;;;;9.66;47.28;100357.94;7971929;28;20041;-66
2021/05/06 07:15:03;;;;;;;3.92;1.90;;;;;;;10.44;46.79;100361.06;7973771;28;20029;-67
2021/05/06 07:18:57;;;;;;;3.78;1.90;;;;;;;11.07;46.21;100352.78;7972919;28;20041;-66
2021/05/06 07:22:49;;;;;;;2.63;2.08;;;;;;;11.68;45.85;100350.72;7971848;28;20040;-66
2021/05/06 07:26:41;;;;;;;3.40;1.85;;;;;;;12.51;45.24;100336.03;7977121;28;20037;-66
2021/05/06 07:30:32;;;;;;;2.28;1.70;;;;;;;12.99;44.58;100339.03;7968426;28;20053;-66
2021/05/06 07:34:24;;;;;;;2.72;2.13;;;;;;;13.02;44.20;100340.56;7979336;28;20228;-67
2021/05/06 07:38:19;;;;;;;3.00;1.90;;;;;;;12.93;43.99;100339.56;7972260;28;20072;-66
2021/05/06 07:42:16;;;;;;;2.35;1.73;;;;;;;12.61;43.79;100331.69;7973002;28;20573;-67
2021/05/06 07:46:08;;;;;;;3.22;2.00;;;;;;;12.25;43.50;100339.94;7975787;28;20040;-66
2021/05/06 07:50:00;;;;;;;2.92;2.05;;;;;;;12.04;43.66;100335.47;7957162;28;20037;-66
2021/05/06 07:53:54;;;;;;;3.80;2.10;;;;;;;12.05;43.47;100341.56;7971349;28;20030;-67
2021/05/06 07:57:46;;;;;;;4.25;2.22;;;;;;;11.87;43.33;100333.34;7975230;28;20098;-67
2021/05/06 08:01:40;;;;;;;3.63;1.95;;;;;;;11.85;43.35;100334.44;7976066;28;20037;-67
2021/05/06 08:05:31;;;;;;;3.33;1.80;;;;;;;11.88;43.26;100323.66;7973856;28;20036;-66
2021/05/06 08:09:23;;;;;;;3.47;2.15;;;;;;;12.48;43.33;100339.72;7971315;28;20040;-66
2021/05/06 08:13:18;;;;;;;5.00;1.90;;;;;;;12.82;42.98;100329.06;7974758;28;20144;-66
2021/05/06 08:17:10;;;;;;;3.67;2.20;;;;;;;12.87;42.71;100330.34;7973856;28;20041;-68
2021/05/06 08:21:01;;;;;;;1.80;1.60;;;;;;;13.36;42.58;100339.34;7972824;28;20076;-67
2021/05/06 08:24:56;;;;;;;2.80;1.70;;;;;;;14.68;42.13;100324.94;7971725;28;21136;-66
2021/05/06 08:28:48;;;;;;;3.90;1.33;;;;;;;15.82;41.45;100335.31;7975771;28;20051;-67
2021/05/06 08:32:40;;;;;;;1.40;1.25;;;;;;;16.63;40.82;100331.69;7975072;28;20042;-67
2021/05/06 08:36:31;;;;;;;3.03;1.63;;;;;;;16.92;40.33;100328.78;7974007;28;20095;-67
2021/05/06 08:40:24;;;;;;;1.80;1.42;;;;;;;16.84;39.78;100326.03;7972081;28;20064;-67
2021/05/06 08:44:16;;;;;;;1.48;1.20;;;;;;;16.73;39.48;100313.03;7977341;28;20044;-66
2021/05/06 08:48:09;;;;;;;1.20;1.10;;;;;;;16.25;39.29;100308.97;7972760;28;20048;-67
2021/05/06 08:52:04;;;;;;;4.50;1.40;;;;;;;16.05;39.42;100307.41;7972745;28;20041;-66
2021/05/06 08:55:57;;;;;;;1.52;1.02;;;;;;;16.21;40.05;100283.75;7977574;28;20244;-67
2021/05/06 08:59:48;;;;;;;2.95;1.52;;;;;;;16.45;40.49;100283.97;7978095;28;20040;-67
2021/05/06 09:03:40;;;;;;;3.15;1.10;;;;;;;16.67;40.29;100295.91;7979354;28;20136;-66
2021/05/06 09:07:32;;;;;;;5.90;1.40;;;;;;;16.78;39.81;100292.19;7982247;28;20055;-68
2021/05/06 09:11:35;;;;;;;2.33;1.30;;;;;;;16.89;39.34;100295.41;7973421;28;20033;-67
2021/05/06 09:15:26;;;;;;;1.60;1.10;;;;;;;17.02;39.64;100297.69;7973235;28;20104;-68
2021/05/06 09:19:19;;;;;;;1.85;1.30;;;;;;;16.94;39.01;100298.47;7987500;28;20509;-67
2021/05/06 09:23:11;;;;;;;1.77;1.30;;;;;;;16.81;38.67;100300.66;7972528;28;20811;-67
2021/05/06 09:27:05;;;;;;;1.17;1.00;;;;;;;16.59;38.49;100301.16;7972402;28;20473;-67
2021/05/06 09:31:05;;;;;;;4.63;1.40;;;;;;;16.40;38.05;100294.22;7977806;28;20528;-67
2021/05/06 09:34:58;;;;;;;2.42;1.30;;;;;;;16.27;38.37;100293.78;7977021;28;20220;-68
2021/05/06 09:38:57;;;;;;;2.97;1.10;;;;;;;16.15;38.26;100284.38;7981920;28;20033;-67
2021/05/06 09:42:52;;;;;;;4.35;1.35;;;;;;;16.02;38.15;100276.78;7974823;28;20040;-67
2021/05/06 09:46:56;;;;;;;2.28;1.20;;;;;;;15.85;38.13;100274.09;7977326;28;20041;-67
2021/05/06 09:50:51;;;;;;;1.02;0.88;;;;;;;15.68;37.86;100284.53;7978836;28;20041;-67
2021/05/06 09:54:50;;;;;;;1.00;0.90;;;;;;;15.47;37.68;100280.44;7979472;28;20040;-66
2021/05/06 09:58:48;;;;;;;1.48;1.20;;;;;;;15.32;37.45;100273.97;7975396;28;20121;-66
2021/05/06 10:02:46;;;;;;;2.72;0.93;;;;;;;15.13;37.46;100282.78;7975770;28;20044;-66
2021/05/06 10:07:03;;;;;;;1.08;0.98;;;;;;;14.90;37.22;100260.31;7977274;28;20107;-66
2021/05/06 10:11:05;;;;;;;2.63;1.05;;;;;;;14.80;37.38;100266.47;7972383;28;20112;-67
2021/05/06 10:15:00;;;;;;;2.13;1.10;;;;;;;14.73;37.35;100264.53;7977618;28;20404;-67
2021/05/06 10:18:53;;;;;;;1.35;1.25;;;;;;;14.68;37.48;100238.53;7974256;28;20071;-67
2021/05/06 10:22:47;;;;;;;1.17;1.00;;;;;;;14.64;37.28;100245.06;7962385;28;20057;-66
2021/05/06 10:26:40;;;;;;;2.47;1.02;;;;;;;14.62;37.50;100230.34;7973558;28;20397;-67
2021/05/06 10:30:38;;;;;;;1.85;1.10;;;;;;;14.61;37.33;100226.88;7980587;28;20045;-67
2021/05/06 10:34:35;;;;;;;1.48;0.98;;;;;;;14.59;37.34;100220.03;7978167;28;20174;-66
2021/05/06 10:38:42;;;;;;;2.83;1.23;;;;;;;14.68;37.24;100230.59;7979038;28;20592;-67
2021/05/06 10:42:37;;;;;;;1.58;1.10;;;;;;;14.76;36.93;100227.22;7975814;28;20029;-66
2021/05/06 10:47:01;;;;;;;2.42;1.02;;;;;;;14.79;37.03;100219.84;7976917;28;20052;-67
2021/05/06 10:50:53;;;;;;;1.40;1.13;;;;;;;14.80;36.75;100221.50;7975090;28;20117;-67
2021/05/06 10:54:50;;;;;;;2.67;1.23;;;;;;;14.88;36.56;100199.63;7979369;28;20432;-66
2021/05/06 10:58:42;;;;;;;2.22;1.27;;;;;;;14.91;36.64;100206.47;7979312;28;20079;-67
2021/05/06 11:02:40;;;;;;;4.05;1.38;;;;;;;14.90;36.41;100205.63;7975302;28;20510;-66
2021/05/06 11:06:39;;;;;;;2.10;1.30;;;;;;;14.95;36.15;100207.84;7976247;28;20417;-66
2021/05/06 11:10:41;;;;;;;1.50;1.17;;;;;;;15.00;36.08;100195.81;7973394;28;20563;-67
2021/05/06 11:14:33;;;;;;;2.30;1.13;;;;;;;15.09;35.91;100194.94;7978396;28;20506;-67
2021/05/06 11:18:49;;;;;;;1.92;1.25;;;;;;;15.16;35.92;100182.00;7969566;28;21407;-67
2021/05/06 11:22:44;;;;;;;1.10;1.00;;;;;;;15.20;35.91;100180.72;7965447;28;20041;-67
2021/05/06 11:27:08;;;;;;;0.70;0.70;;;;;;;15.17;35.46;100160.66;7975831;28;20697;-67
2021/05/06 11:31:00;;;;;;;1.92;1.00;;;;;;;15.22;35.36;100163.69;7972144;28;20386;-67
2021/05/06 11:34:53;;;;;;;3.17;1.23;;;;;;;15.25;35.14;100158.09;7972914;28;20111;-67
2021/05/06 11:38:53;;;;;;;1.48;0.95;;;;;;;15.26;35.16;100148.34;7973368;28;20557;-68
2021/05/06 11:42:47;;;;;;;1.77;0.90;;;;;;;15.33;34.88;100159.22;7978615;28;20640;-66
2021/05/06 11:46:41;;;;;;;2.25;1.20;;;;;;;15.37;34.85;100142.06;7974503;28;20395;-67
2021/05/06 11:50:39;;;;;;;1.48;1.00;;;;;;;15.41;34.54;100132.84;7975918;28;20494;-67
2021/05/06 11:54:32;;;;;;;2.80;1.67;;;;;;;15.43;34.28;100125.56;7974945;28;20037;-66
2021/05/06 11:58:28;;;;;;;1.90;1.25;;;;;;;15.43;34.16;100117.63;7974531;28;20033;-67
2021/05/06 12:02:24;;;;;;;1.92;1.00;;;;;;;15.46;34.34;100118.16;7971584;28;20033;-67
2021/05/06 12:06:27;;;;;;;3.67;1.73;;;;;;;15.43;34.16;100109.69;7973128;28;20099;-67
2021/05/06 12:10:18;;;;;;;1.52;1.08;;;;;;;15.50;34.32;100106.28;7967407;28;20044;-67
2021/05/06 12:14:13;;;;;;;1.75;1.10;;;;;;;15.55;33.91;100106.66;7967027;28;20102;-66
2021/05/06 12:18:15;;;;;;;1.42;1.00;;;;;;;15.59;33.92;100101.91;7959479;28;20498;-67
2021/05/06 12:22:11;;;;;;;2.17;1.00;;;;;;;15.61;33.48;100100.78;7973485;28;20033;-67
2021/05/06 12:26:16;;;;;;;1.20;1.10;;;;;;;15.59;33.27;100094.78;7969472;28;20156;-67
2021/05/06 12:30:13;;;;;;;1.00;0.80;;;;;;;15.56;33.45;100092.47;7966709;28;20083;-67
2021/05/06 12:34:16;;;;;;;1.50;1.00;;;;;;;15.46;33.26;100086.41;7970148;28;20049;-66
2021/05/06 12:38:10;;;;;;;2.13;1.25;;;;;;;15.38;33.21;100073.09;7979350;28;20041;-66
2021/05/06 12:42:05;;;;;;;2.25;1.13;;;;;;;15.37;32.90;100074.09;7977795;28;20120;-66
2021/05/06 12:46:09;;;;;;;1.42;1.08;;;;;;;15.34;32.89;100071.72;7976116;28;20041;-66
2021/05/06 12:50:13;;;;;;;2.13;1.13;;;;;;;15.32;32.90;100070.22;7979718;28;20048;-66
2021/05/06 12:54:10;;;;;;;1.83;1.10;;;;;;;15.28;32.63;100061.72;7982055;28;20044;-66
2021/05/06 12:58:13;;;;;;;2.70;1.13;;;;;;;15.26;32.55;100045.16;7981388;28;20484;-69
2021/05/06 13:02:12;;;;;;;3.05;1.23;;;;;;;15.25;32.61;100035.56;7976945;28;20063;-67
2021/05/06 13:06:15;;;;;;;1.83;1.00;;;;;;;15.25;32.60;100043.50;7983040;28;20037;-68
2021/05/06 13:10:07;;;;;;;1.15;1.02;;;;;;;15.24;32.57;100040.03;7979037;28;20045;-66
2021/05/06 13:14:06;;;;;;;1.50;0.93;;;;;;;15.21;32.29;100024.44;7978359;28;20068;-68
2021/05/06 13:17:58;;;;;;;1.95;1.27;;;;;;;15.21;32.31;100024.44;7975351;28;20053;-66
2021/05/06 13:21:52;;;;;;;1.40;1.00;;;;;;;15.20;32.27;100017.50;7977152;28;20044;-66
2021/05/06 13:25:49;;;;;;;1.55;1.10;;;;;;;15.18;32.23;100024.75;7976201;28;20037;-66
2021/05/06 13:29:59;;;;;;;2.60;1.30;;;;;;;15.15;32.29;100013.66;7963977;28;20059;-66
2021/05/06 13:34:24;;;;;;;1.75;0.90;;;;;;;15.15;32.14;100016.28;7991826;28;20052;-66
2021/05/06 13:38:15;;;;;;;1.40;0.85;;;;;;;15.17;32.27;100019.59;7973012;28;20694;-66
2021/05/06 13:42:07;;;;;;;2.08;1.10;;;;;;;15.17;31.91;100011.66;7970430;28;20037;-66
2021/05/06 13:45:59;;;;;;;1.65;0.88;;;;;;;15.12;32.00;100003.38;7980081;28;20047;-66
2021/05/06 13:49:53;;;;;;;1.75;1.20;;;;;;;15.08;32.03;100002.03;7971150;28;20045;-66
2021/05/06 13:53:46;;;;;;;2.40;0.98;;;;;;;15.03;32.23;100002.47;7975795;28;20049;-67
2021/05/06 13:57:38;;;;;;;1.13;1.00;;;;;;;15.01;32.31;99987.72;7972754;28;20086;-66
2021/05/06 14:01:30;;;;;;;1.33;1.00;;;;;;;14.99;32.15;99987.88;7973974;28;20040;-66
2021/05/06 14:05:22;;;;;;;2.55;1.25;;;;;;;14.95;31.77;99978.59;7976435;28;20034;-66
2021/05/06 14:09:18;;;;;;;1.40;1.00;;;;;;;14.92;31.80;99978.88;7975759;28;20064;-66
2021/05/06 14:13:10;;;;;;;2.58;1.40;;;;;;;14.88;31.92;99980.16;7978006;28;20494;-66
2021/05/06 14:17:02;;;;;;;2.10;1.30;;;;;;;14.83;32.17;99980.59;7973228;28;20052;-66
2021/05/06 14:20:59;;;;;;;3.92;1.25;;;;;;;14.81;32.00;99982.56;7978867;28;20040;-67
2021/05/06 14:24:52;;;;;;;3.50;1.20;;;;;;;14.73;32.08;99987.78;7980886;28;20116;-66
2021/05/06 14:28:44;;;;;;;1.20;1.00;;;;;;;14.65;32.00;99971.00;7976622;28;20068;-66
2021/05/06 14:32:36;;;;;;;2.42;1.30;;;;;;;14.59;32.05;99980.34;7972304;28;20044;-66
2021/05/06 14:36:33;;;;;;;1.48;0.90;;;;;;;14.54;31.92;99973.88;7976261;28;20045;-67
2021/05/06 14:40:25;;;;;;;2.28;0.90;;;;;;;14.48;31.96;99988.50;7979543;28;20036;-67
2021/05/06 14:44:17;;;;;;;2.83;0.90;;;;;;;14.43;32.01;99987.25;7978500;28;20033;-66
2021/05/06 14:48:10;;;;;;;1.58;0.88;;;;;;;14.38;32.23;99988.50;7975161;28;20041;-66
2021/05/06 14:52:08;;;;;;;1.27;0.93;;;;;;;14.32;31.97;99981.19;7978358;28;20037;-66
2021/05/06 14:56:03;;;;;;;1.90;1.17;;;;;;;14.33;32.07;99979.38;7975249;28;20048;-67
2021/05/06 14:59:55;;;;;;;1.50;0.85;;;;;;;14.31;31.95;99981.31;7977858;28;20044;-66
2021/05/06 15:03:46;;;;;;;1.58;1.17;;;;;;;14.30;32.26;99983.13;7974227;28;20457;-67
2021/05/06 15:07:38;;;;;;;1.30;1.02;;;;;;;14.26;32.14;99979.09;7978844;28;20090;-66
2021/05/06 15:11:31;;;;;;;2.85;0.90;;;;;;;14.24;32.36;99969.69;7975942;28;20052;-66
2021/05/06 15:15:25;;;;;;;0.80;0.80;;;;;;;14.24;32.33;99986.34;7966660;28;20030;-66
2021/05/06 15:19:19;;;;;;;1.83;1.00;;;;;;;14.20;32.07;99986.78;7974454;28;20037;-66
2021/05/06 15:23:10;;;;;;;3.75;1.23;;;;;;;14.15;32.07;99986.41;7977639;28;20033;-66
2021/05/06 15:27:05;;;;;;;2.08;1.50;;;;;;;14.09;32.20;99981.72;7973861;28;20473;-67
2021/05/06 15:31:00;;;;;;;1.60;1.08;;;;;;;14.00;32.33;99982.56;7972774;28;20634;-67
2021/05/06 15:34:55;;;;;;;4.32;1.33;;;;;;;13.95;32.66;99992.72;7978318;28;20033;-66
2021/05/06 15:38:50;;;;;;;1.02;0.93;;;;;;;13.86;32.49;99991.78;7976353;28;20113;-66
2021/05/06 15:42:43;;;;;;;2.13;1.02;;;;;;;13.82;32.61;99993.88;7975797;28;20037;-66
2021/05/06 15:46:42;;;;;;;2.05;1.17;;;;;;;13.74;33.10;99995.56;7971604;28;20056;-67
2021/05/06 15:50:37;;;;;;;3.47;1.33;;;;;;;13.66;32.88;99998.09;7974154;28;20065;-66
2021/05/06 15:54:32;;;;;;;2.28;1.30;;;;;;;13.58;32.82;99995.31;7972083;28;20034;-66
2021/05/06 15:58:23;;;;;;;7.43;1.27;;;;;;;13.48;33.06;99991.81;7975107;28;20146;-66
2021/05/06 16:02:16;;;;;;;2.20;1.00;;;;;;;13.43;33.08;99992.25;7969231;28;20072;-66
2021/05/06 16:06:08;;;;;;;1.73;1.02;;;;;;;13.36;33.19;99991.13;7973809;28;20041;-67
2021/05/06 16:10:00;;;;;;;12.98;1.35;;;;;;;13.29;33.21;99985.59;7980804;28;20557;-68
2021/05/06 16:13:54;;;;;;;1.95;1.05;;;;;;;13.19;33.21;99987.41;7998272;28;20033;-67
2021/05/06 16:17:52;;;;;;;2.90;1.23;;;;;;;13.12;33.35;99988.09;7976181;28;20049;-66
2021/05/06 16:21:44;;;;;;;;;;;;;;;12.97;33.59;99996.41;7977176;28;20386;-66
2021/05/06 16:25:37;;;;;;;1.70;1.35;;;;;;;12.99;33.46;99988.38;7981421;28;20300;-67
2021/05/06 16:29:30;;;;;;;4.35;1.33;;;;;;;12.96;33.60;99989.50;7981258;28;20406;-66
2021/05/06 16:33:26;;;;;;;1.52;1.00;;;;;;;12.92;33.42;99985.47;7974175;28;21946;-66
2021/05/06 16:37:27;;;;;;;2.13;1.20;;;;;;;12.89;33.48;99993.63;7973429;28;20482;-67
2021/05/06 16:41:28;;;;;;;1.33;0.90;;;;;;;12.86;33.53;99986.00;7977634;28;20045;-68
2021/05/06 16:45:22;;;;;;;2.67;1.20;;;;;;;12.79;33.50;99995.44;7978285;28;20629;-71
2021/05/06 16:49:17;;;;;;;1.88;1.38;;;;;;;12.73;33.75;99981.94;7975488;28;20036;-73
2021/05/06 16:53:09;;;;;;;2.88;1.45;;;;;;;12.68;33.69;99984.19;7977794;28;20430;-72
2021/05/06 16:57:04;;;;;;;1.50;1.33;;;;;;;12.59;33.79;99979.72;7972915;28;20428;-74
2021/05/06 17:00:57;;;;;;;1.98;0.98;;;;;;;12.60;34.16;99992.75;7972411;28;20155;-73
2021/05/06 17:04:49;;;;;;;3.45;1.23;;;;;;;12.58;33.95;99992.06;7977031;28;20037;-75
2021/05/06 17:08:44;;;;;;;2.58;1.20;;;;;;;12.53;34.06;99989.81;7974012;28;20666;-76
2021/05/06 17:12:36;;;;;;;1.70;1.10;;;;;;;12.48;34.28;99985.91;7977552;28;20045;-78
2021/05/06 17:16:27;;;;;;;1.70;1.20;;;;;;;12.45;34.43;99997.53;7973994;28;20042;-72
2021/05/06 17:20:28;;;;;;;1.45;1.20;;;;;;;12.38;34.23;99992.94;7979287;28;21707;-76
2021/05/06 17:24:23;;;;;;;3.30;1.40;;;;;;;12.34;34.54;99991.56;7975995;28;20025;-76
2021/05/06 17:28:15;;;;;;;2.53;1.75;;;;;;;12.32;34.57;99998.75;7971302;28;20497;-76
2021/05/06 17:32:11;;;;;;;2.60;1.58;;;;;;;12.29;34.64;99996.38;7972511;28;20069;-75
2021/05/06 17:36:03;;;;;;;4.03;1.88;;;;;;;12.24;34.62;99995.94;7972254;28;20042;-75
2021/05/06 17:40:01;;;;;;;6.15;1.90;;;;;;;12.21;34.88;99998.84;7975037;28;20045;-74
2021/05/06 17:43:56;;;;;;;3.38;1.50;;;;;;;12.15;34.77;99991.47;7957821;28;20905;-74
2021/05/06 17:47:51;;;;;;;2.70;1.40;;;;;;;12.12;35.11;100002.25;7975722;28;20122;-72
2021/05/06 17:51:44;;;;;;;1.20;1.10;;;;;;;12.08;34.97;100002.53;7975569;28;20052;-72
2021/05/06 17:55:36;;;;;;;2.95;1.55;;;;;;;12.00;35.14;99998.88;7977465;28;20498;-72
2021/05/06 17:59:33;;;;;;;2.60;1.60;;;;;;;11.96;35.19;100002.75;7976392;28;21169;-71
2021/05/06 18:03:25;;;;;;;2.90;1.40;;;;;;;11.92;35.38;100011.88;7973747;28;20156;-69
2021/05/06 18:07:17;;;;;;;1.58;1.10;;;;;;;11.84;35.44;100007.28;7976724;28;20055;-69
2021/05/06 18:15:20;;;;;;;1.63;1.20;;;;;;;11.76;35.72;100028.13;7976022;28;20049;-66
2021/05/06 18:19:14;;;;;;;2.35;1.35;;;;;;;11.72;35.80;100029.34;7973978;28;20543;-75
2021/05/06 18:23:06;;;;;;;2.63;1.65;;;;;;;11.66;35.86;100036.91;7989429;28;20044;-71
2021/05/06 18:26:58;;;;;;;2.25;1.30;;;;;;;11.54;36.07;100030.84;7971597;28;20547;-68
2021/05/06 18:30:53;;;;;;;5.20;1.50;;;;;;;11.54;36.06;100052.72;7975650;28;20126;-70
2021/05/06 18:34:45;;;;;;;1.92;1.35;;;;;;;11.47;36.17;100054.22;7977011;28;20048;-68
2021/05/06 18:38:37;;;;;;;4.18;1.65;;;;;;;11.43;36.22;100054.59;7976389;28;20775;-68
2021/05/06 18:42:32;;;;;;;4.32;1.40;;;;;;;11.40;36.24;100057.47;7970210;28;20136;-68
2021/05/06 18:46:27;;;;;;;2.40;1.55;;;;;;;11.35;36.37;100059.63;7974143;28;20065;-68
2021/05/06 18:50:22;;;;;;;2.55;1.30;;;;;;;11.31;36.52;100055.59;7978898;28;20430;-70
2021/05/06 18:54:16;;;;;;;3.08;1.33;;;;;;;11.25;36.83;100067.44;7977391;28;20052;-69
2021/05/06 18:58:11;;;;;;;5.63;1.65;;;;;;;11.21;36.69;100066.00;7975959;28;20090;-69
2021/05/06 19:02:03;;;;;;;4.13;1.25;;;;;;;11.12;36.79;100066.75;7976809;28;20041;-69
2021/05/06 19:05:58;;;;;;;2.50;1.20;;;;;;;11.06;36.89;100077.78;7971525;28;20045;-69
2021/05/06 19:09:52;;;;;;;3.25;1.50;;;;;;;11.03;37.07;100083.25;7974944;28;20036;-69
2021/05/06 19:13:52;;;;;;;2.42;1.40;;;;;;;10.99;37.07;100089.72;7973717;28;20045;-69
2021/05/06 19:17:45;;;;;;;2.70;1.40;;;;;;;10.94;37.13;100100.59;7972416;28;20518;-69
2021/05/06 19:21:38;;;;;;;1.85;1.42;;;;;;;10.89;37.17;100102.78;7973892;28;20124;-71
2021/05/06 19:25:36;;;;;;;1.48;1.20;;;;;;;10.82;37.33;100106.81;7975238;28;20033;-68
2021/05/06 19:29:28;;;;;;;4.50;1.67;;;;;;;10.79;37.37;100109.69;7980494;28;20080;-71
2021/05/06 19:33:27;;;;;;;3.35;1.77;;;;;;;10.76;37.43;100115.19;7970111;28;20289;-69
2021/05/06 19:37:19;;;;;;;2.60;1.63;;;;;;;10.72;37.59;100120.81;7979568;28;20521;-67
2021/05/06 19:41:13;;;;;;;3.05;1.70;;;;;;;10.69;37.63;100132.41;7969551;28;20400;-67
2021/05/06 19:45:10;;;;;;;3.67;1.38;;;;;;;10.68;37.81;100139.44;7979155;28;20049;-68
2021/05/06 19:49:04;;;;;;;1.77;1.40;;;;;;;10.64;37.92;100139.81;7971119;28;20740;-69
2021/05/06 19:53:02;;;;;;;1.98;1.45;;;;;;;10.60;37.83;100144.47;7975238;28;21956;-72
2021/05/06 19:57:01;;;;;;;2.55;1.40;;;;;;;10.57;38.04;100157.81;7974974;28;20073;-67
2021/05/06 20:00:53;;;;;;;3.38;1.58;;;;;;;10.54;38.15;100152.81;7977372;28;20124;-68
2021/05/06 20:04:46;;;;;;;2.20;1.67;;;;;;;10.43;38.16;100152.78;7977433;28;20025;-69
2021/05/06 20:08:44;;;;;;;4.28;2.00;;;;;;;10.46;38.24;100168.28;7975126;28;20052;-66
2021/05/06 20:12:36;;;;;;;4.30;1.73;;;;;;;10.42;38.08;100163.38;7973951;28;20065;-66
2021/05/06 20:16:27;;;;;;;3.05;1.83;;;;;;;10.44;38.41;100174.63;7972143;28;20037;-66
2021/05/06 20:24:12;;;;;;;2.20;1.52;;;;;;;10.39;38.43;100185.47;7973127;28;20029;-66
2021/05/06 20:28:04;;;;;;;5.43;1.70;;;;;;;10.32;38.64;100178.19;7975294;28;20033;-66
2021/05/06 20:31:56;;;;;;;3.55;2.20;;;;;;;10.31;38.74;100190.47;7974293;28;20065;-66
2021/05/06 20:35:48;;;;;;;3.10;1.75;;;;;;;10.28;38.88;100195.13;7975175;28;20039;-66
2021/05/06 20:39:40;;;;;;;4.25;1.92;;;;;;;10.20;38.97;100207.00;7968301;28;20037;-66
2021/05/06 20:43:34;;;;;;;3.65;2.13;;;;;;;10.11;39.24;100215.59;7968320;28;20033;-66
2021/05/06 20:47:28;;;;;;;2.10;1.85;;;;;;;9.99;39.11;100208.59;7973070;28;20037;-66
2021/05/06 20:51:20;;;;;;;5.40;2.45;;;;;;;9.91;39.31;100218.81;7974103;28;20037;-66
2021/05/06 20:55:20;;;;;;;4.95;2.35;;;;;;;9.78;39.56;100218.88;7974736;28;20122;-66
2021/05/06 20:59:11;;;;;;;2.83;2.42;;;;;;;9.70;39.70;100233.53;7972650;28;20025;-66
2021/05/06 21:03:03;;;;;;;4.00;2.90;;;;;;;9.62;39.83;100235.84;7978730;28;20033;-67
2021/05/06 21:06:55;;;;;;;4.57;2.70;;;;;;;9.44;39.68;100247.66;7981095;28;20037;-66
2021/05/06 21:10:47;;;;;;;3.00;2.35;;;;;;;9.32;40.00;100259.81;7982152;28;20041;-66
2021/05/06 21:14:41;;;;;;;3.47;2.58;;;;;;;9.21;40.15;100257.94;7978054;28;20037;-66
2021/05/06 21:18:33;;;;;;;3.40;2.90;;;;;;;9.12;40.15;100263.81;7982204;28;20686;-66
2021/05/06 21:22:25;;;;;;;5.30;3.30;;;;;;;9.01;40.22;100268.13;7976263;28;20032;-66
2021/05/06 21:26:19;;;;;;;5.10;3.40;;;;;;;9.00;40.18;100266.44;7978188;28;20040;-66
2021/05/06 21:30:11;;;;;;;3.28;2.70;;;;;;;8.92;39.93;100269.59;7980113;28;20048;-66
2021/05/06 21:34:03;;;;;;;6.53;3.05;;;;;;;8.84;40.45;100267.50;7980337;28;20489;-66
2021/05/06 21:37:55;;;;;;;4.05;3.10;;;;;;;8.76;40.35;100268.97;7980229;28;21257;-65
2021/05/06 21:41:49;;;;;;;6.03;3.35;;;;;;;8.74;40.56;100276.09;7995624;28;20710;-65
2021/05/06 21:45:41;;;;;;;3.92;2.95;;;;;;;8.71;40.31;100276.28;7992421;28;20124;-66
2021/05/06 21:49:42;;;;;;;3.30;2.67;;;;;;;8.65;40.48;100268.88;7971580;28;20033;-65
2021/05/06 21:53:34;;;;;;;4.20;3.17;;;;;;;8.61;40.80;100280.47;7982255;28;20036;-66
2021/05/06 21:57:26;;;;;;;3.17;2.63;;;;;;;8.56;40.74;100286.03;7979768;28;20452;-66